Time;durP1;ratioP1;P1;durP2;ratioP2;P2;SDS_P1;SDS_P2;PMS_P1;PMS_P2;Temp;Humidity;BMP_temperature;BMP_pressure;BME280_temperature;BME280_humidity;BME280_pressure;Samples;Min_cycle;Max_cycle;Signal;HPM_P1;HPM_P2
2024/02/21 00:00:47;;;;;;;;;;;;;;;9.76;84.49;99471.33;68400;1279;1016022;-69
2024/02/21 00:04:11;;;;;;;;;;;;;;;9.60;85.69;99467.70;68430;1279;1016637;-66
2024/02/21 00:07:13;;;;;;;;;;;;;;;9.49;86.14;99471.16;68409;1279;1015482;-68
2024/02/21 00:10:16;;;;;;;;;;;;;;;9.50;86.39;99470.09;68410;1279;1015533;-69
2024/02/21 00:13:18;;;;;;;;;;;;;;;9.41;87.09;99471.90;68389;1279;1015712;-69
2024/02/21 00:16:21;;;;;;;;;;;;;;;9.36;87.18;99468.27;68417;1279;1015925;-69
2024/02/21 00:19:23;;;;;;;;;;;;;;;9.29;87.49;99464.96;68394;1279;1015971;-69
2024/02/21 00:22:28;;;;;;;;;;;;;;;9.26;87.23;99468.90;68387;1279;1015503;-69
2024/02/21 00:25:31;;;;;;;;;;;;;;;9.27;87.09;99466.06;68420;1279;1016147;-69
2024/02/21 00:28:34;;;;;;;;;;;;;;;9.31;86.70;99453.82;68410;1279;1016060;-69
2024/02/21 00:31:36;;;;;;;;;;;;;;;9.25;86.85;99457.94;68404;1279;1015642;-69
2024/02/21 00:34:39;;;;;;;;;;;;;;;9.29;86.64;99452.55;68424;1279;1016053;-69
2024/02/21 00:37:41;;;;;;;;;;;;;;;9.29;86.44;99451.48;68391;1279;1015696;-68
2024/02/21 00:40:44;;;;;;;;;;;;;;;9.26;87.71;99444.29;68404;1279;1016030;-69
2024/02/21 00:43:48;;;;;;;;;;;;;;;9.26;87.84;99444.46;68420;1279;1016391;-70
2024/02/21 00:46:52;;;;;;;;;;;;;;;9.28;87.70;99435.64;68406;1279;1016117;-69
2024/02/21 00:49:55;;;;;;;;;;;;;;;9.23;88.13;99437.80;68392;1279;1014514;-68
2024/02/21 00:52:57;;;;;;;;;;;;;;;9.32;87.42;99432.86;68418;1279;1015292;-70
2024/02/21 00:56:00;;;;;;;;;;;;;;;9.31;87.03;99429.59;68399;1279;1015799;-69
2024/02/21 00:59:02;;;;;;;;;;;;;;;9.38;86.44;99429.29;68425;1279;1015810;-69
2024/02/21 01:02:05;;;;;;;;;;;;;;;9.42;86.20;99428.75;68420;1268;1015835;-69
2024/02/21 01:05:08;;;;;;;;;;;;;;;9.33;87.21;99425.33;68421;1279;1015654;-69
2024/02/21 01:08:10;;;;;;;;;;;;;;;9.37;86.84;99421.80;68414;1279;1015141;-69
2024/02/21 01:11:13;;;;;;;;;;;;;;;9.48;86.26;99417.77;68402;1279;1015324;-66
2024/02/21 01:14:15;;;;;;;;;;;;;;;9.54;85.75;99416.13;68407;1279;1015389;-68
2024/02/21 01:17:18;;;;;;;;;;;;;;;9.54;85.65;99408.30;68413;1279;1016011;-69
2024/02/21 01:20:20;;;;;;;;;;;;;;;9.58;85.94;99411.55;68424;1279;1015298;-69
2024/02/21 01:23:23;;;;;;;;;;;;;;;9.58;85.57;99410.54;68407;1279;1015254;-69
2024/02/21 01:26:25;;;;;;;;;;;;;;;9.56;85.94;99406.43;68421;1279;1015598;-69
2024/02/21 01:29:28;;;;;;;;;;;;;;;9.40;86.79;99399.34;68407;1279;1015849;-69
2024/02/21 01:32:31;;;;;;;;;;;;;;;9.42;86.42;99400.27;68417;1279;1016158;-68
2024/02/21 01:35:33;;;;;;;;;;;;;;;9.30;87.12;99399.79;68414;1279;1016101;-69
2024/02/21 01:38:36;;;;;;;;;;;;;;;9.24;87.73;99394.84;68403;1279;1016195;-69
2024/02/21 01:41:38;;;;;;;;;;;;;;;9.31;87.27;99393.84;68397;1279;1016210;-68
2024/02/21 01:44:41;;;;;;;;;;;;;;;9.20;88.17;99392.38;68417;1279;1015167;-69
2024/02/21 01:47:45;;;;;;;;;;;;;;;9.15;88.48;99388.78;68410;1279;1015891;-69
2024/02/21 01:50:47;;;;;;;;;;;;;;;8.94;90.49;99386.58;68426;1279;1015785;-69
2024/02/21 01:53:50;;;;;;;;;;;;;;;9.08;89.46;99386.30;68405;1279;1015188;-69
2024/02/21 01:56:52;;;;;;;;;;;;;;;9.29;87.94;99386.54;68406;1279;1015128;-68
2024/02/21 01:59:55;;;;;;;;;;;;;;;9.32;87.53;99383.30;68413;1279;1015926;-69
2024/02/21 02:02:58;;;;;;;;;;;;;;;9.27;87.21;99384.59;68409;1279;1015517;-69
2024/02/21 02:06:00;;;;;;;;;;;;;;;9.33;86.63;99379.56;68408;1279;1015729;-69
2024/02/21 02:09:03;;;;;;;;;;;;;;;9.54;85.04;99380.66;68405;1279;1015906;-69
2024/02/21 02:12:05;;;;;;;;;;;;;;;9.62;84.55;99371.74;68404;1279;1014598;-69
2024/02/21 02:15:08;;;;;;;;;;;;;;;9.59;84.57;99374.52;68407;1279;1015927;-69
2024/02/21 02:18:11;;;;;;;;;;;;;;;9.37;85.88;99375.02;68418;1279;1016038;-69
2024/02/21 02:21:13;;;;;;;;;;;;;;;9.29;86.84;99370.01;68430;1279;1015533;-63
2024/02/21 02:24:16;;;;;;;;;;;;;;;9.22;87.24;99370.52;68418;1279;1016670;-69
2024/02/21 02:27:19;;;;;;;;;;;;;;;9.13;88.06;99368.79;68425;1279;1016488;-69
2024/02/21 02:30:22;;;;;;;;;;;;;;;9.22;87.73;99365.25;68406;1279;1015538;-69
2024/02/21 02:33:24;;;;;;;;;;;;;;;9.22;87.47;99362.10;68401;1279;1015857;-69
2024/02/21 02:36:27;;;;;;;;;;;;;;;9.51;85.42;99356.75;68413;1279;1016029;-69
2024/02/21 02:39:29;;;;;;;;;;;;;;;9.46;85.59;99359.22;68435;1279;1015569;-69
2024/02/21 02:42:32;;;;;;;;;;;;;;;9.43;85.77;99360.10;68421;1279;1015680;-69
2024/02/21 02:45:34;;;;;;;;;;;;;;;9.53;84.92;99367.46;68425;1279;1014683;-69
2024/02/21 02:48:38;;;;;;;;;;;;;;;9.58;84.71;99368.65;68432;1279;1015462;-69
2024/02/21 02:51:41;;;;;;;;;;;;;;;9.46;85.89;99366.94;68422;1279;1016211;-69
2024/02/21 02:54:43;;;;;;;;;;;;;;;9.35;86.75;99363.42;68410;1279;1015297;-69
2024/02/21 02:57:46;;;;;;;;;;;;;;;9.30;87.40;99354.59;68416;1279;1015636;-69
2024/02/21 03:00:48;;;;;;;;;;;;;;;9.32;86.62;99356.77;68440;1279;1015796;-68
2024/02/21 03:03:51;;;;;;;;;;;;;;;9.28;86.58;99358.86;68416;1279;1015810;-69
2024/02/21 03:06:53;;;;;;;;;;;;;;;9.28;86.60;99358.52;68421;1279;1015702;-69
2024/02/21 03:09:56;;;;;;;;;;;;;;;9.34;86.56;99357.70;68408;1279;1015034;-68
2024/02/21 03:12:58;;;;;;;;;;;;;;;9.32;86.91;99357.46;68419;1279;1015661;-69
2024/02/21 03:16:01;;;;;;;;;;;;;;;9.37;87.00;99358.61;68421;1279;1015854;-69
2024/02/21 03:19:03;;;;;;;;;;;;;;;9.40;87.10;99357.95;68446;1279;1015840;-69
2024/02/21 03:22:06;;;;;;;;;;;;;;;9.40;87.46;99359.03;68424;1279;1016116;-69
2024/02/21 03:25:09;;;;;;;;;;;;;;;9.49;87.23;99359.08;68441;1279;1015232;-68
2024/02/21 03:28:11;;;;;;;;;;;;;;;9.48;87.73;99359.84;68412;1279;1015962;-69
2024/02/21 03:31:14;;;;;;;;;;;;;;;9.51;87.76;99361.81;68425;1279;1015546;-60
2024/02/21 03:34:16;;;;;;;;;;;;;;;9.55;87.63;99356.54;68443;1279;1014661;-69
2024/02/21 03:37:19;;;;;;;;;;;;;;;9.59;87.72;99358.61;68413;1279;1015487;-69
2024/02/21 03:40:22;;;;;;;;;;;;;;;9.72;86.88;99357.12;68427;1279;1016188;-69
2024/02/21 03:43:24;;;;;;;;;;;;;;;9.72;86.63;99352.08;68427;1279;1015679;-68
2024/02/21 03:46:27;;;;;;;;;;;;;;;9.74;86.57;99349.70;68429;1279;1016057;-67
2024/02/21 03:49:29;;;;;;;;;;;;;;;9.84;85.47;99347.42;68416;1279;1016110;-69
2024/02/21 03:52:32;;;;;;;;;;;;;;;9.81;86.21;99345.84;68457;1279;1015577;-69
2024/02/21 03:55:34;;;;;;;;;;;;;;;9.84;85.60;99350.77;68429;1279;1015834;-69
2024/02/21 03:58:38;;;;;;;;;;;;;;;9.81;85.79;99350.22;68431;1279;1015721;-70
2024/02/21 04:01:40;;;;;;;;;;;;;;;9.86;85.06;99354.36;68431;1279;1015418;-69
2024/02/21 04:04:43;;;;;;;;;;;;;;;9.84;85.13;99353.90;68421;1279;1015996;-68
2024/02/21 04:07:46;;;;;;;;;;;;;;;9.80;85.25;99353.75;68433;1279;1016093;-69
2024/02/21 04:10:48;;;;;;;;;;;;;;;9.72;85.59;99354.30;68433;1279;1015981;-69
2024/02/21 04:13:51;;;;;;;;;;;;;;;9.64;86.23;99351.56;68434;1279;1016266;-69
2024/02/21 04:16:53;;;;;;;;;;;;;;;9.72;85.56;99353.80;68428;1279;1015190;-69
2024/02/21 04:19:56;;;;;;;;;;;;;;;9.75;85.33;99350.32;68419;1279;1015429;-69
2024/02/21 04:22:59;;;;;;;;;;;;;;;9.73;84.82;99345.38;68433;1279;1015248;-69
2024/02/21 04:26:01;;;;;;;;;;;;;;;9.69;84.97;99345.20;68431;1279;1015594;-69
2024/02/21 04:29:04;;;;;;;;;;;;;;;9.54;86.33;99340.54;68430;1279;1015794;-69
2024/02/21 04:32:06;;;;;;;;;;;;;;;9.49;86.98;99339.54;68439;1279;1015584;-69
2024/02/21 04:35:09;;;;;;;;;;;;;;;9.48;86.88;99333.70;68431;1279;1015594;-69
2024/02/21 04:38:12;;;;;;;;;;;;;;;9.38;87.98;99326.30;68433;1279;1015718;-69
2024/02/21 04:41:14;;;;;;;;;;;;;;;9.47;87.72;99331.63;68421;1279;1015962;-68
2024/02/21 04:44:17;;;;;;;;;;;;;;;9.51;87.48;99330.91;68438;1279;1015672;-69
2024/02/21 04:47:19;;;;;;;;;;;;;;;9.55;86.67;99331.05;68411;1279;1015955;-69
2024/02/21 04:50:22;;;;;;;;;;;;;;;9.48;87.18;99328.77;68444;1279;1015322;-69
2024/02/21 04:53:25;;;;;;;;;;;;;;;9.56;86.56;99327.86;68416;1279;1015640;-69
2024/02/21 04:56:27;;;;;;;;;;;;;;;9.55;86.95;99329.13;68439;1279;1015823;-68
2024/02/21 04:59:30;;;;;;;;;;;;;;;9.57;87.05;99321.18;68439;1279;1016358;-68
2024/02/21 05:02:33;;;;;;;;;;;;;;;9.68;85.75;99322.90;68446;1279;1015417;-69
2024/02/21 05:05:35;;;;;;;;;;;;;;;9.66;85.87;99319.38;68443;1279;1015883;-69
2024/02/21 05:08:38;;;;;;;;;;;;;;;9.63;86.27;99320.70;68433;1279;1016126;-69
2024/02/21 05:11:40;;;;;;;;;;;;;;;9.59;86.54;99314.94;68429;1279;1016248;-69
2024/02/21 05:14:43;;;;;;;;;;;;;;;9.58;86.78;99318.69;68444;1279;1015601;-69
2024/02/21 05:17:45;;;;;;;;;;;;;;;9.54;86.86;99315.73;68471;1279;1015360;-68
2024/02/21 05:20:48;;;;;;;;;;;;;;;9.48;87.46;99316.39;68439;1279;1014943;-69
2024/02/21 05:23:50;;;;;;;;;;;;;;;9.47;87.82;99320.46;68434;1279;1015303;-69
2024/02/21 05:26:53;;;;;;;;;;;;;;;9.41;88.34;99317.25;68449;1279;1015933;-69
2024/02/21 05:29:56;;;;;;;;;;;;;;;9.37;88.61;99315.85;68432;1279;1015739;-69
2024/02/21 05:32:58;;;;;;;;;;;;;;;9.40;88.93;99312.23;68443;1279;1015504;-69
2024/02/21 05:36:01;;;;;;;;;;;;;;;9.39;89.09;99310.91;68437;1279;1016376;-69
2024/02/21 05:39:03;;;;;;;;;;;;;;;9.42;88.71;99304.80;68441;1279;1015534;-69
2024/02/21 05:42:06;;;;;;;;;;;;;;;9.49;88.41;99306.90;68437;1279;1015672;-68
2024/02/21 05:45:08;;;;;;;;;;;;;;;9.57;88.02;99302.84;68437;1279;1016024;-69
2024/02/21 05:48:11;;;;;;;;;;;;;;;9.70;87.34;99299.08;68427;1279;1016471;-69
2024/02/21 05:51:14;;;;;;;;;;;;;;;9.75;87.05;99299.17;68441;1279;1016638;-68
2024/02/21 05:54:17;;;;;;;;;;;;;;;9.65;87.37;99297.56;68441;1279;1015562;-69
2024/02/21 05:57:19;;;;;;;;;;;;;;;9.70;87.59;99299.77;68442;1279;1015432;-69
2024/02/21 06:00:22;;;;;;;;;;;;;;;9.85;86.73;99294.84;68415;1279;1015393;-69
2024/02/21 06:03:25;;;;;;;;;;;;;;;9.94;85.86;99297.50;68444;1280;1016284;-66
2024/02/21 06:06:28;;;;;;;;;;;;;;;10.19;84.58;99294.70;68435;1279;1015759;-69
2024/02/21 06:09:31;;;;;;;;;;;;;;;10.05;85.33;99294.35;68443;1279;1015560;-69
2024/02/21 06:12:34;;;;;;;;;;;;;;;10.09;84.99;99296.41;68424;1280;1015867;-69
2024/02/21 06:15:36;;;;;;;;;;;;;;;10.15;84.91;99299.09;68443;1279;1015253;-69
2024/02/21 06:18:39;;;;;;;;;;;;;;;10.33;83.75;99295.35;68424;1279;1015766;-68
2024/02/21 06:21:42;;;;;;;;;;;;;;;10.42;83.18;99296.44;68430;1279;1014277;-69
2024/02/21 06:24:45;;;;;;;;;;;;;;;10.52;82.78;99292.30;68437;1279;1016219;-69
2024/02/21 06:27:47;;;;;;;;;;;;;;;10.54;82.90;99290.98;68455;1279;1014715;-69
2024/02/21 06:30:50;;;;;;;;;;;;;;;10.68;82.10;99290.04;68435;1279;1015389;-68
2024/02/21 06:33:52;;;;;;;;;;;;;;;10.60;82.52;99292.52;68438;1279;1015637;-69
2024/02/21 06:36:55;;;;;;;;;;;;;;;10.63;82.65;99293.27;68432;1279;1015472;-69
2024/02/21 06:39:57;;;;;;;;;;;;;;;10.67;83.08;99293.92;68413;1279;1015598;-69
2024/02/21 06:43:00;;;;;;;;;;;;;;;10.63;82.59;99296.29;68426;1280;1015412;-69
2024/02/21 06:46:02;;;;;;;;;;;;;;;10.69;83.22;99283.16;68427;1280;1016200;-63
2024/02/21 06:49:05;;;;;;;;;;;;;;;10.70;82.98;99283.61;68418;1279;1016135;-68
2024/02/21 06:52:08;;;;;;;;;;;;;;;10.70;83.59;99282.02;68431;1279;1016344;-69
2024/02/21 06:55:11;;;;;;;;;;;;;;;10.83;83.31;99282.92;68442;1280;1015744;-69
2024/02/21 06:58:15;;;;;;;;;;;;;;;10.98;82.29;99284.18;68430;1279;1015394;-67
2024/02/21 07:01:18;;;;;;;;;;;;;;;11.18;81.27;99281.00;68430;1280;1015946;-68
2024/02/21 07:04:20;;;;;;;;;;;;;;;11.33;79.93;99285.05;68442;1279;1015323;-69
2024/02/21 07:07:23;;;;;;;;;;;;;;;11.39;80.02;99278.38;68438;1280;1015499;-69
2024/02/21 07:10:25;;;;;;;;;;;;;;;11.36;78.93;99273.47;68446;1279;1015507;-69
2024/02/21 07:13:28;;;;;;;;;;;;;;;11.46;78.47;99273.80;68447;1279;1015306;-69
2024/02/21 07:16:32;;;;;;;;;;;;;;;11.48;77.84;99278.75;68450;1279;1015919;-69
2024/02/21 07:19:35;;;;;;;;;;;;;;;11.42;78.01;99274.95;68445;1280;1016097;-69
2024/02/21 07:22:38;;;;;;;;;;;;;;;11.45;76.74;99273.52;68442;1279;1014749;-69
2024/02/21 07:25:40;;;;;;;;;;;;;;;11.29;77.56;99269.89;68431;1279;1015361;-69
2024/02/21 07:28:43;;;;;;;;;;;;;;;11.34;77.91;99275.36;68437;1279;1014537;-69
2024/02/21 07:31:48;;;;;;;;;;;;;;;11.45;78.32;99270.36;68450;1280;1014565;-68
2024/02/21 07:34:51;;;;;;;;;;;;;;;11.60;77.02;99270.86;68425;1280;1015788;-69
2024/02/21 07:37:53;;;;;;;;;;;;;;;11.69;76.01;99273.52;68436;1280;1015354;-70
2024/02/21 07:40:56;;;;;;;;;;;;;;;11.58;76.74;99268.39;68431;1279;1015848;-69
2024/02/21 07:43:59;;;;;;;;;;;;;;;11.34;78.94;99270.96;68420;1280;1015605;-69
2024/02/21 07:47:01;;;;;;;;;;;;;;;11.24;78.71;99263.70;68442;1280;1015676;-69
2024/02/21 07:50:04;;;;;;;;;;;;;;;11.25;79.63;99259.23;68438;1280;1015438;-69
2024/02/21 07:53:06;;;;;;;;;;;;;;;11.19;79.11;99264.83;68429;1280;1016201;-69
2024/02/21 07:56:09;;;;;;;;;;;;;;;11.15;80.80;99262.45;68425;1280;1014855;-70
2024/02/21 07:59:13;;;;;;;;;;;;;;;11.17;80.29;99264.58;68426;1280;1015602;-70
2024/02/21 08:02:16;;;;;;;;;;;;;;;11.17;79.21;99270.55;66247;1279;5362178;-69
2024/02/21 08:05:18;;;;;;;;;;;;;;;11.08;79.69;99262.84;68435;1278;1015329;-69
2024/02/21 08:08:21;;;;;;;;;;;;;;;11.20;80.91;99256.40;68445;1280;1016077;-68
2024/02/21 08:11:24;;;;;;;;;;;;;;;11.30;80.33;99254.45;68431;1279;1016082;-69
2024/02/21 08:14:27;;;;;;;;;;;;;;;11.47;80.15;99249.10;68433;1280;1015520;-69
2024/02/21 08:17:29;;;;;;;;;;;;;;;11.69;80.31;99248.66;68433;1280;1015904;-68
2024/02/21 08:20:40;;;;;;;;;;;;;;;11.82;77.67;99243.55;68368;1280;1016334;-69
2024/02/21 08:23:43;;;;;;;;;;;;;;;11.91;77.11;99241.61;68433;1279;1015904;-69
2024/02/21 08:26:46;;;;;;;;;;;;;;;11.77;76.53;99236.46;68443;1280;1014401;-69
2024/02/21 08:29:49;;;;;;;;;;;;;;;11.82;76.99;99235.80;68433;1279;1015342;-69
2024/02/21 08:32:51;;;;;;;;;;;;;;;11.86;78.06;99229.77;68430;1280;1015454;-69
2024/02/21 08:35:54;;;;;;;;;;;;;;;11.90;76.76;99237.45;68442;1280;1015896;-69
2024/02/21 08:38:56;;;;;;;;;;;;;;;12.03;76.39;99230.21;68435;1279;1015366;-69
2024/02/21 08:41:59;;;;;;;;;;;;;;;12.06;75.65;99229.67;68441;1279;1015447;-69
2024/02/21 08:45:01;;;;;;;;;;;;;;;12.11;75.73;99231.67;68412;1279;1015782;-70
2024/02/21 08:48:04;;;;;;;;;;;;;;;12.22;74.67;99228.17;68439;1280;1015886;-69
2024/02/21 08:51:06;;;;;;;;;;;;;;;12.26;76.11;99225.30;68449;1280;1016153;-69
2024/02/21 08:54:09;;;;;;;;;;;;;;;12.38;74.75;99223.17;68421;1280;1015999;-69
2024/02/21 08:57:13;;;;;;;;;;;;;;;12.55;74.71;99223.03;68438;1279;1016051;-68
2024/02/21 09:00:16;;;;;;;;;;;;;;;12.65;70.96;99225.16;68406;1279;1015469;-69
2024/02/21 09:03:19;;;;;;;;;;;;;;;12.85;73.76;99227.28;68432;1280;1015239;-69
2024/02/21 09:06:22;;;;;;;;;;;;;;;12.93;72.02;99221.63;68432;1280;1015492;-69
2024/02/21 09:09:25;;;;;;;;;;;;;;;12.92;70.22;99225.39;68425;1280;1014459;-68
2024/02/21 09:12:27;;;;;;;;;;;;;;;12.91;70.99;99223.16;68441;1280;1015328;-69
2024/02/21 09:15:30;;;;;;;;;;;;;;;12.91;71.16;99224.07;68427;1280;1015300;-69
2024/02/21 09:18:32;;;;;;;;;;;;;;;12.76;71.86;99221.86;68429;1279;1016144;-69
2024/02/21 09:21:35;;;;;;;;;;;;;;;12.70;71.98;99227.14;68435;1280;1015933;-69
2024/02/21 09:24:37;;;;;;;;;;;;;;;12.70;72.11;99220.85;68432;1279;1015687;-68
2024/02/21 09:27:40;;;;;;;;;;;;;;;12.68;72.07;99219.73;68415;1280;1016105;-69
2024/02/21 09:30:42;;;;;;;;;;;;;;;12.65;71.85;99211.85;68433;1279;1015167;-69
2024/02/21 09:33:45;;;;;;;;;;;;;;;12.70;72.90;99215.21;68439;1279;1015221;-69
2024/02/21 09:36:47;;;;;;;;;;;;;;;12.67;71.02;99213.65;68427;1280;1015203;-69
2024/02/21 09:39:52;;;;;;;;;;;;;;;12.43;71.08;99214.08;68414;1279;1015719;-69
2024/02/21 09:42:54;;;;;;;;;;;;;;;12.39;71.41;99214.85;68414;1280;1015898;-68
2024/02/21 09:45:57;;;;;;;;;;;;;;;12.42;72.67;99221.16;68429;1280;1015962;-69
2024/02/21 09:49:00;;;;;;;;;;;;;;;12.67;70.75;99214.73;68445;1280;1016291;-69
2024/02/21 09:52:03;;;;;;;;;;;;;;;12.72;71.75;99215.61;68430;1279;1016342;-68
2024/02/21 09:55:06;;;;;;;;;;;;;;;13.09;70.97;99207.11;68418;1280;1015766;-68
2024/02/21 09:58:08;;;;;;;;;;;;;;;13.35;70.76;99202.77;68403;1280;1015816;-69
2024/02/21 10:01:11;;;;;;;;;;;;;;;13.45;67.33;99200.02;68425;1280;1015492;-69
2024/02/21 10:04:13;;;;;;;;;;;;;;;13.57;69.23;99196.26;68420;1280;1015618;-69
2024/02/21 10:07:16;;;;;;;;;;;;;;;13.76;68.58;99195.80;68431;1280;1016109;-69
2024/02/21 10:10:21;;;;;;;;;;;;;;;13.79;67.52;99190.94;68424;1280;1015553;-69
2024/02/21 10:13:24;;;;;;;;;;;;;;;13.99;68.88;99180.39;68416;1280;1015964;-69
2024/02/21 10:16:26;;;;;;;;;;;;;;;14.19;65.68;99177.98;68434;1280;1016129;-69
2024/02/21 10:19:29;;;;;;;;;;;;;;;14.06;64.82;99179.23;68412;1280;1015480;-69
2024/02/21 10:22:35;;;;;;;;;;;;;;;14.04;65.27;99186.33;68429;1280;1016099;-69
2024/02/21 10:25:41;;;;;;;;;;;;;;;13.76;63.40;99186.52;68411;1280;1015319;-68
2024/02/21 10:28:44;;;;;;;;;;;;;;;13.52;63.84;99193.56;68410;1280;1016038;-69
2024/02/21 10:31:47;;;;;;;;;;;;;;;13.50;65.78;99185.46;68416;1279;1015314;-69
2024/02/21 10:34:52;;;;;;;;;;;;;;;13.74;66.24;99174.50;68409;1280;1015418;-64
2024/02/21 10:37:55;;;;;;;;;;;;;;;14.01;65.23;99165.96;68393;1280;1015920;-69
2024/02/21 10:40:58;;;;;;;;;;;;;;;14.14;65.08;99161.94;68422;1280;1015455;-69
2024/02/21 10:44:01;;;;;;;;;;;;;;;14.40;63.97;99158.85;68414;1280;1015643;-68
2024/02/21 10:47:03;;;;;;;;;;;;;;;14.67;64.11;99151.52;68413;1280;1015880;-69
2024/02/21 10:50:06;;;;;;;;;;;;;;;14.87;63.79;99153.73;68409;1280;1014854;-69
2024/02/21 10:53:09;;;;;;;;;;;;;;;14.80;61.59;99159.34;68423;1280;1015890;-69
2024/02/21 10:56:12;;;;;;;;;;;;;;;14.70;61.97;99153.77;68405;1280;1015296;-69
2024/02/21 10:59:14;;;;;;;;;;;;;;;14.50;62.39;99150.44;68419;1280;1015265;-68
2024/02/21 11:02:17;;;;;;;;;;;;;;;14.31;62.26;99144.17;68427;1280;1015367;-67
2024/02/21 11:05:19;;;;;;;;;;;;;;;14.27;62.52;99140.78;68419;1280;1015912;-68
2024/02/21 11:08:22;;;;;;;;;;;;;;;14.16;63.81;99140.02;68435;1280;1015157;-69
2024/02/21 11:11:24;;;;;;;;;;;;;;;13.98;61.84;99139.46;68418;1280;1015415;-69
2024/02/21 11:14:27;;;;;;;;;;;;;;;13.92;63.72;99132.73;68417;1280;1015945;-68
2024/02/21 11:17:29;;;;;;;;;;;;;;;13.90;63.18;99132.50;68421;1280;1015596;-68
2024/02/21 11:20:32;;;;;;;;;;;;;;;13.68;62.61;99137.87;68415;1279;1015719;-68
2024/02/21 11:23:34;;;;;;;;;;;;;;;13.46;63.73;99131.80;68406;1280;1015418;-69
2024/02/21 11:26:37;;;;;;;;;;;;;;;13.34;66.00;99129.77;68410;1280;1015727;-69
2024/02/21 11:29:41;;;;;;;;;;;;;;;13.33;65.79;99127.41;68399;1280;1014434;-69
2024/02/21 11:32:43;;;;;;;;;;;;;;;13.29;66.19;99122.89;68409;1280;1015328;-69
2024/02/21 11:35:46;;;;;;;;;;;;;;;13.49;66.46;99114.55;68410;1280;1015755;-69
2024/02/21 11:38:49;;;;;;;;;;;;;;;13.75;66.51;99103.66;68377;1280;1015536;-69
2024/02/21 11:41:51;;;;;;;;;;;;;;;13.99;65.90;99092.66;68332;1281;1015611;-69
2024/02/21 11:44:56;;;;;;;;;;;;;;;14.07;64.31;99089.98;68316;1281;1015766;-69
2024/02/21 11:48:00;;;;;;;;;;;;;;;14.05;63.43;99085.88;68333;1281;1016315;-68
2024/02/21 11:51:03;;;;;;;;;;;;;;;14.04;64.68;99087.35;68332;1281;1015651;-68
2024/02/21 11:54:06;;;;;;;;;;;;;;;13.94;62.13;99086.13;68333;1281;1015993;-69
2024/02/21 11:57:08;;;;;;;;;;;;;;;13.81;62.08;99090.00;68339;1281;1015483;-69
2024/02/21 12:00:12;;;;;;;;;;;;;;;13.68;61.77;99082.14;68327;1281;1015941;-68
2024/02/21 12:03:14;;;;;;;;;;;;;;;13.83;63.37;99077.41;68339;1281;1016077;-67
2024/02/21 12:06:20;;;;;;;;;;;;;;;13.94;61.13;99077.19;68344;1281;1015932;-68
2024/02/21 12:09:22;;;;;;;;;;;;;;;13.84;62.14;99072.79;68340;1281;1015237;-68
2024/02/21 12:12:25;;;;;;;;;;;;;;;13.75;62.33;99070.77;68335;1281;1015779;-68
2024/02/21 12:15:28;;;;;;;;;;;;;;;13.72;62.32;99064.86;68344;1281;1015728;-68
2024/02/21 12:18:30;;;;;;;;;;;;;;;13.82;62.79;99055.35;68332;1280;1016162;-68
2024/02/21 12:21:36;;;;;;;;;;;;;;;13.63;64.07;99058.08;68345;1281;1015493;-69
2024/02/21 12:24:42;;;;;;;;;;;;;;;13.42;63.43;99054.45;68336;1281;1014999;-69
2024/02/21 12:27:44;;;;;;;;;;;;;;;13.39;62.89;99054.09;68345;1281;1014508;-69
2024/02/21 12:30:47;;;;;;;;;;;;;;;13.16;62.37;99057.56;68329;1281;1016201;-69
2024/02/21 12:33:52;;;;;;;;;;;;;;;12.97;62.57;99061.84;68324;1281;1015676;-68
2024/02/21 12:36:54;;;;;;;;;;;;;;;12.97;63.25;99061.48;68343;1281;1016608;-69
2024/02/21 12:39:57;;;;;;;;;;;;;;;13.02;61.73;99048.82;68407;1279;1014927;-68
2024/02/21 12:42:59;;;;;;;;;;;;;;;12.97;63.40;99051.48;68401;1279;1015484;-67
2024/02/21 12:46:02;;;;;;;;;;;;;;;13.06;64.23;99044.55;68398;1279;1015317;-68
2024/02/21 12:49:05;;;;;;;;;;;;;;;13.03;65.15;99040.34;68389;1279;1016187;-69
2024/02/21 12:52:07;;;;;;;;;;;;;;;13.04;65.47;99038.55;68391;1279;1016054;-69
2024/02/21 12:55:12;;;;;;;;;;;;;;;12.98;66.19;99033.34;68403;1279;1016179;-69
2024/02/21 12:58:14;;;;;;;;;;;;;;;12.95;67.05;99029.32;68392;1279;1015531;-68
2024/02/21 13:01:17;;;;;;;;;;;;;;;13.01;67.49;99033.14;68411;1279;1016011;-69
2024/02/21 13:04:21;;;;;;;;;;;;;;;13.11;66.53;99023.67;68401;1279;1015402;-68
2024/02/21 13:07:23;;;;;;;;;;;;;;;13.11;66.52;99018.55;68407;1279;1015749;-68
2024/02/21 13:10:26;;;;;;;;;;;;;;;13.23;66.34;99014.58;68397;1279;1015918;-69
2024/02/21 13:13:29;;;;;;;;;;;;;;;13.16;67.49;99013.48;68394;1279;1014344;-69
2024/02/21 13:16:31;;;;;;;;;;;;;;;13.13;67.56;99014.05;68407;1279;1016038;-68
2024/02/21 13:19:34;;;;;;;;;;;;;;;13.21;66.65;99016.69;68400;1279;1014864;-69
2024/02/21 13:22:36;;;;;;;;;;;;;;;13.13;68.28;99011.08;68389;1279;1016021;-69
2024/02/21 13:25:39;;;;;;;;;;;;;;;12.99;68.39;99011.49;68400;1279;1015623;-66
2024/02/21 13:28:42;;;;;;;;;;;;;;;12.91;68.95;99008.53;68409;1279;1016180;-69
2024/02/21 13:31:44;;;;;;;;;;;;;;;12.93;70.54;99015.94;68403;1279;1015229;-68
2024/02/21 13:34:47;;;;;;;;;;;;;;;12.88;69.36;99011.70;68403;1279;1016161;-69
2024/02/21 13:37:50;;;;;;;;;;;;;;;12.80;67.87;99012.92;68395;1279;1016144;-68
2024/02/21 13:40:53;;;;;;;;;;;;;;;12.61;68.39;99014.58;68394;1279;1016040;-68
2024/02/21 13:43:56;;;;;;;;;;;;;;;12.48;67.86;99011.70;68411;1279;1015916;-68
2024/02/21 13:46:58;;;;;;;;;;;;;;;12.40;68.44;99004.90;68406;1279;1014293;-69
2024/02/21 13:50:01;;;;;;;;;;;;;;;12.49;68.86;99001.33;68395;1279;1016026;-69
2024/02/21 13:53:04;;;;;;;;;;;;;;;12.39;69.31;98997.75;68415;1279;1016231;-68
2024/02/21 13:56:07;;;;;;;;;;;;;;;12.32;69.63;98999.11;68422;1279;1015753;-69
2024/02/21 13:59:11;;;;;;;;;;;;;;;12.34;69.87;98990.52;68411;1279;1016355;-68
2024/02/21 14:02:14;;;;;;;;;;;;;;;12.35;70.63;98989.42;68402;1279;1016220;-69
2024/02/21 14:05:16;;;;;;;;;;;;;;;12.29;72.08;98988.06;68385;1279;1015505;-68
2024/02/21 14:08:19;;;;;;;;;;;;;;;12.34;69.91;98992.33;68387;1279;1015945;-69
2024/02/21 14:11:22;;;;;;;;;;;;;;;12.35;70.26;98982.44;68400;1279;1015320;-68
2024/02/21 14:14:24;;;;;;;;;;;;;;;12.30;70.76;98987.66;68403;1279;1016118;-69
2024/02/21 14:17:27;;;;;;;;;;;;;;;12.20;71.55;98987.26;68391;1279;1016159;-69
2024/02/21 14:20:30;;;;;;;;;;;;;;;12.27;71.34;98988.74;68396;1279;1016116;-69
2024/02/21 14:23:33;;;;;;;;;;;;;;;12.34;71.37;98979.36;68404;1279;1015882;-68
2024/02/21 14:26:37;;;;;;;;;;;;;;;12.39;71.23;98971.46;68392;1279;1015733;-69
2024/02/21 14:29:39;;;;;;;;;;;;;;;12.35;71.12;98964.55;68386;1279;1015409;-68
2024/02/21 14:32:42;;;;;;;;;;;;;;;12.24;70.16;98961.92;68391;1279;1015903;-69
2024/02/21 14:35:44;;;;;;;;;;;;;;;12.20;71.98;98960.09;68398;1279;1015586;-69
2024/02/21 14:38:47;;;;;;;;;;;;;;;12.12;71.76;98962.86;68399;1279;1015126;-69
2024/02/21 14:41:50;;;;;;;;;;;;;;;12.13;72.46;98957.20;68402;1279;1015429;-69
2024/02/21 14:44:53;;;;;;;;;;;;;;;12.15;72.52;98956.20;68408;1279;1015705;-69
2024/02/21 14:47:56;;;;;;;;;;;;;;;12.23;72.80;98952.71;68405;1279;1015966;-69
2024/02/21 14:50:58;;;;;;;;;;;;;;;12.32;72.67;98947.90;68399;1279;1016371;-69
2024/02/21 14:54:01;;;;;;;;;;;;;;;12.61;71.54;98942.85;68392;1279;1015871;-69
2024/02/21 14:57:04;;;;;;;;;;;;;;;12.62;70.79;98939.92;68398;1279;1015962;-69
2024/02/21 15:00:08;;;;;;;;;;;;;;;12.46;71.98;98932.05;68393;1279;1015924;-69
2024/02/21 15:03:11;;;;;;;;;;;;;;;12.60;71.51;98931.81;68403;1279;1015501;-69
2024/02/21 15:06:13;;;;;;;;;;;;;;;12.67;71.07;98930.67;68404;1279;1014477;-69
2024/02/21 15:09:16;;;;;;;;;;;;;;;12.59;70.45;98918.37;68396;1279;1015359;-68
2024/02/21 15:12:23;;;;;;;;;;;;;;;12.40;71.92;98919.30;68400;1279;1016004;-69
2024/02/21 15:15:25;;;;;;;;;;;;;;;12.39;72.32;98913.77;68386;1279;1015793;-69
2024/02/21 15:18:28;;;;;;;;;;;;;;;12.49;72.08;98918.34;68387;1279;1014989;-68
2024/02/21 15:21:32;;;;;;;;;;;;;;;12.52;72.02;98915.85;68397;1279;1015889;-69
2024/02/21 15:24:34;;;;;;;;;;;;;;;12.56;72.16;98911.75;68386;1279;1016158;-68
2024/02/21 15:27:37;;;;;;;;;;;;;;;12.49;72.96;98913.98;68378;1279;1015692;-68
2024/02/21 15:30:40;;;;;;;;;;;;;;;12.55;72.76;98909.05;68392;1279;1015282;-69